sensor_id;sensor_type;location;lat;lon;timestamp;temperature;humidity
2439;DHT22;14509;47.992;7.848;2024-02-15T00:01:51;15.20;55.80
2439;DHT22;14509;47.992;7.848;2024-02-15T00:03:52;15.20;55.80
2439;DHT22;14509;47.992;7.848;2024-02-15T00:05:53;15.20;55.80
2439;DHT22;14509;47.992;7.848;2024-02-15T00:07:55;15.20;55.90
2439;DHT22;14509;47.992;7.848;2024-02-15T00:09:56;15.20;55.90
2439;DHT22;14509;47.992;7.848;2024-02-15T00:11:59;15.10;56.00
2439;DHT22;14509;47.992;7.848;2024-02-15T00:14:02;15.10;56.00
2439;DHT22;14509;47.992;7.848;2024-02-15T00:16:04;15.10;56.10
2439;DHT22;14509;47.992;7.848;2024-02-15T00:18:05;15.10;56.20
2439;DHT22;14509;47.992;7.848;2024-02-15T00:20:08;15.10;56.30
2439;DHT22;14509;47.992;7.848;2024-02-15T00:22:10;15.10;56.20
2439;DHT22;14509;47.992;7.848;2024-02-15T00:24:12;15.10;56.40
2439;DHT22;14509;47.992;7.848;2024-02-15T00:26:15;15.10;56.40
2439;DHT22;14509;47.992;7.848;2024-02-15T00:28:17;15.00;56.90
2439;DHT22;14509;47.992;7.848;2024-02-15T00:30:20;15.00;56.40
2439;DHT22;14509;47.992;7.848;2024-02-15T00:32:22;15.00;56.40
2439;DHT22;14509;47.992;7.848;2024-02-15T00:34:23;15.00;56.30
2439;DHT22;14509;47.992;7.848;2024-02-15T00:36:26;15.00;56.50
2439;DHT22;14509;47.992;7.848;2024-02-15T00:38:28;15.00;56.30
2439;DHT22;14509;47.992;7.848;2024-02-15T00:40:30;14.90;56.20
2439;DHT22;14509;47.992;7.848;2024-02-15T00:42:32;14.90;56.20
2439;DHT22;14509;47.992;7.848;2024-02-15T00:44:33;14.90;56.20
2439;DHT22;14509;47.992;7.848;2024-02-15T00:46:37;14.90;56.30
2439;DHT22;14509;47.992;7.848;2024-02-15T00:48:38;14.80;56.40
2439;DHT22;14509;47.992;7.848;2024-02-15T00:50:41;15.60;57.10
2439;DHT22;14509;47.992;7.848;2024-02-15T00:52:43;14.70;56.50
2439;DHT22;14509;47.992;7.848;2024-02-15T00:54:45;14.60;56.50
2439;DHT22;14509;47.992;7.848;2024-02-15T00:56:47;14.60;56.60
2439;DHT22;14509;47.992;7.848;2024-02-15T00:58:49;14.60;56.70
2439;DHT22;14509;47.992;7.848;2024-02-15T01:00:50;14.50;56.70
2439;DHT22;14509;47.992;7.848;2024-02-15T01:02:54;14.50;56.90
2439;DHT22;14509;47.992;7.848;2024-02-15T01:04:56;14.50;56.90
2439;DHT22;14509;47.992;7.848;2024-02-15T01:06:59;14.50;56.90
2439;DHT22;14509;47.992;7.848;2024-02-15T01:09:01;14.50;56.90
2439;DHT22;14509;47.992;7.848;2024-02-15T01:11:03;14.40;56.90
2439;DHT22;14509;47.992;7.848;2024-02-15T01:13:06;14.50;57.00
2439;DHT22;14509;47.992;7.848;2024-02-15T01:15:09;14.40;56.80
2439;DHT22;14509;47.992;7.848;2024-02-15T01:17:11;14.40;56.80
2439;DHT22;14509;47.992;7.848;2024-02-15T01:19:14;14.40;56.90
2439;DHT22;14509;47.992;7.848;2024-02-15T01:21:16;14.30;56.80
2439;DHT22;14509;47.992;7.848;2024-02-15T01:23:19;14.20;56.90
2439;DHT22;14509;47.992;7.848;2024-02-15T01:25:23;14.30;57.00
2439;DHT22;14509;47.992;7.848;2024-02-15T01:27:24;14.30;56.90
2439;DHT22;14509;47.992;7.848;2024-02-15T01:29:30;14.30;56.90
2439;DHT22;14509;47.992;7.848;2024-02-15T01:31:32;14.20;56.70
2439;DHT22;14509;47.992;7.848;2024-02-15T01:33:33;14.20;56.70
2439;DHT22;14509;47.992;7.848;2024-02-15T01:35:38;14.20;57.50
2439;DHT22;14509;47.992;7.848;2024-02-15T01:37:40;14.20;56.90
2439;DHT22;14509;47.992;7.848;2024-02-15T01:39:42;14.20;57.00
2439;DHT22;14509;47.992;7.848;2024-02-15T01:41:47;14.20;57.20
2439;DHT22;14509;47.992;7.848;2024-02-15T01:43:51;14.10;57.10
2439;DHT22;14509;47.992;7.848;2024-02-15T01:45:53;14.10;57.20
2439;DHT22;14509;47.992;7.848;2024-02-15T01:47:55;14.10;57.30
2439;DHT22;14509;47.992;7.848;2024-02-15T01:49:57;14.10;57.40
2439;DHT22;14509;47.992;7.848;2024-02-15T01:52:02;14.10;57.30
2439;DHT22;14509;47.992;7.848;2024-02-15T01:54:06;14.10;57.30
2439;DHT22;14509;47.992;7.848;2024-02-15T01:56:08;14.10;57.40
2439;DHT22;14509;47.992;7.848;2024-02-15T01:58:09;14.10;57.30
2439;DHT22;14509;47.992;7.848;2024-02-15T02:00:11;15.70;58.60
2439;DHT22;14509;47.992;7.848;2024-02-15T02:02:14;14.10;57.30
2439;DHT22;14509;47.992;7.848;2024-02-15T02:04:17;14.10;57.30
2439;DHT22;14509;47.992;7.848;2024-02-15T02:06:19;14.10;57.30
2439;DHT22;14509;47.992;7.848;2024-02-15T02:08:22;14.10;57.30
2439;DHT22;14509;47.992;7.848;2024-02-15T02:10:24;14.10;57.30
2439;DHT22;14509;47.992;7.848;2024-02-15T02:12:26;14.10;57.30
2439;DHT22;14509;47.992;7.848;2024-02-15T02:14:28;14.30;57.40
2439;DHT22;14509;47.992;7.848;2024-02-15T02:16:31;14.00;57.20
2439;DHT22;14509;47.992;7.848;2024-02-15T02:18:33;14.00;57.10
2439;DHT22;14509;47.992;7.848;2024-02-15T02:20:36;14.00;57.20
2439;DHT22;14509;47.992;7.848;2024-02-15T02:22:38;14.00;57.10
2439;DHT22;14509;47.992;7.848;2024-02-15T02:24:59;14.00;57.20
2439;DHT22;14509;47.992;7.848;2024-02-15T02:27:01;14.00;57.20
2439;DHT22;14509;47.992;7.848;2024-02-15T02:29:03;14.00;57.30
2439;DHT22;14509;47.992;7.848;2024-02-15T02:31:05;13.90;57.10
2439;DHT22;14509;47.992;7.848;2024-02-15T02:33:10;13.90;57.20
2439;DHT22;14509;47.992;7.848;2024-02-15T02:35:18;13.90;57.20
2439;DHT22;14509;47.992;7.848;2024-02-15T02:37:21;13.90;57.30
2439;DHT22;14509;47.992;7.848;2024-02-15T02:39:22;13.80;57.20
2439;DHT22;14509;47.992;7.848;2024-02-15T02:41:26;13.90;57.20
2439;DHT22;14509;47.992;7.848;2024-02-15T02:43:28;13.90;57.20
2439;DHT22;14509;47.992;7.848;2024-02-15T02:45:30;13.80;57.20
2439;DHT22;14509;47.992;7.848;2024-02-15T02:47:32;13.80;57.20
2439;DHT22;14509;47.992;7.848;2024-02-15T02:49:35;13.70;57.20
2439;DHT22;14509;47.992;7.848;2024-02-15T02:51:37;13.70;57.20
2439;DHT22;14509;47.992;7.848;2024-02-15T02:53:39;13.70;57.20
2439;DHT22;14509;47.992;7.848;2024-02-15T02:55:41;13.60;57.30
2439;DHT22;14509;47.992;7.848;2024-02-15T02:57:44;13.50;57.30
2439;DHT22;14509;47.992;7.848;2024-02-15T02:59:46;14.50;58.20
2439;DHT22;14509;47.992;7.848;2024-02-15T03:01:48;13.60;57.50
2439;DHT22;14509;47.992;7.848;2024-02-15T03:03:50;14.90;58.50
2439;DHT22;14509;47.992;7.848;2024-02-15T03:05:52;13.50;57.40
2439;DHT22;14509;47.992;7.848;2024-02-15T03:07:54;13.50;57.50
2439;DHT22;14509;47.992;7.848;2024-02-15T03:09:57;13.40;57.50
2439;DHT22;14509;47.992;7.848;2024-02-15T03:11:59;13.40;57.50
2439;DHT22;14509;47.992;7.848;2024-02-15T03:14:03;13.40;57.70
2439;DHT22;14509;47.992;7.848;2024-02-15T03:16:05;13.40;57.80
2439;DHT22;14509;47.992;7.848;2024-02-15T03:18:07;13.50;58.00
2439;DHT22;14509;47.992;7.848;2024-02-15T03:20:10;13.30;57.90
2439;DHT22;14509;47.992;7.848;2024-02-15T03:22:20;13.10;58.20
2439;DHT22;14509;47.992;7.848;2024-02-15T03:24:25;13.10;58.30
2439;DHT22;14509;47.992;7.848;2024-02-15T03:26:31;13.10;58.20
2439;DHT22;14509;47.992;7.848;2024-02-15T03:28:38;13.10;58.10
2439;DHT22;14509;47.992;7.848;2024-02-15T03:30:42;13.20;58.20
2439;DHT22;14509;47.992;7.848;2024-02-15T03:32:44;13.20;58.30
2439;DHT22;14509;47.992;7.848;2024-02-15T03:34:48;13.20;58.20
2439;DHT22;14509;47.992;7.848;2024-02-15T03:36:50;13.10;58.40
2439;DHT22;14509;47.992;7.848;2024-02-15T03:38:54;13.60;59.00
2439;DHT22;14509;47.992;7.848;2024-02-15T03:40:56;13.10;58.60
2439;DHT22;14509;47.992;7.848;2024-02-15T03:42:57;13.10;58.50
2439;DHT22;14509;47.992;7.848;2024-02-15T03:44:59;13.10;58.40
2439;DHT22;14509;47.992;7.848;2024-02-15T03:47:02;13.10;58.40
2439;DHT22;14509;47.992;7.848;2024-02-15T03:49:05;13.10;58.50
2439;DHT22;14509;47.992;7.848;2024-02-15T03:51:08;13.10;58.70
2439;DHT22;14509;47.992;7.848;2024-02-15T03:53:10;13.10;58.50
2439;DHT22;14509;47.992;7.848;2024-02-15T03:55:12;13.10;58.50
2439;DHT22;14509;47.992;7.848;2024-02-15T03:57:14;13.10;58.60
2439;DHT22;14509;47.992;7.848;2024-02-15T03:59:17;13.20;58.60
2439;DHT22;14509;47.992;7.848;2024-02-15T04:01:22;13.10;58.60
2439;DHT22;14509;47.992;7.848;2024-02-15T04:03:25;13.10;58.50
2439;DHT22;14509;47.992;7.848;2024-02-15T04:05:27;13.20;58.60
2439;DHT22;14509;47.992;7.848;2024-02-15T04:07:29;13.20;58.50
2439;DHT22;14509;47.992;7.848;2024-02-15T04:09:31;13.20;58.30
2439;DHT22;14509;47.992;7.848;2024-02-15T04:11:33;13.10;58.40
2439;DHT22;14509;47.992;7.848;2024-02-15T04:13:35;13.20;58.40
2439;DHT22;14509;47.992;7.848;2024-02-15T04:15:38;13.20;58.30
2439;DHT22;14509;47.992;7.848;2024-02-15T04:17:39;13.10;58.40
2439;DHT22;14509;47.992;7.848;2024-02-15T04:19:43;13.10;58.50
2439;DHT22;14509;47.992;7.848;2024-02-15T04:21:46;13.10;58.50
2439;DHT22;14509;47.992;7.848;2024-02-15T04:23:47;13.10;58.40
2439;DHT22;14509;47.992;7.848;2024-02-15T04:25:49;13.10;58.30
2439;DHT22;14509;47.992;7.848;2024-02-15T04:27:52;13.10;58.30
2439;DHT22;14509;47.992;7.848;2024-02-15T04:29:53;13.10;58.10
2439;DHT22;14509;47.992;7.848;2024-02-15T04:31:55;13.10;58.00
2439;DHT22;14509;47.992;7.848;2024-02-15T04:33:57;13.10;58.00
2439;DHT22;14509;47.992;7.848;2024-02-15T04:36:00;13.00;57.90
2439;DHT22;14509;47.992;7.848;2024-02-15T04:38:05;13.10;58.10
2439;DHT22;14509;47.992;7.848;2024-02-15T04:40:09;13.00;58.10
2439;DHT22;14509;47.992;7.848;2024-02-15T04:42:11;13.10;58.20
2439;DHT22;14509;47.992;7.848;2024-02-15T04:44:12;13.00;58.00
2439;DHT22;14509;47.992;7.848;2024-02-15T04:46:16;13.10;58.20
2439;DHT22;14509;47.992;7.848;2024-02-15T04:48:21;13.00;58.10
2439;DHT22;14509;47.992;7.848;2024-02-15T04:50:25;13.00;58.00
2439;DHT22;14509;47.992;7.848;2024-02-15T04:52:28;13.00;58.00
2439;DHT22;14509;47.992;7.848;2024-02-15T04:54:30;12.90;58.00
2439;DHT22;14509;47.992;7.848;2024-02-15T04:56:33;12.80;58.20
2439;DHT22;14509;47.992;7.848;2024-02-15T04:58:34;12.80;58.20
2439;DHT22;14509;47.992;7.848;2024-02-15T05:00:37;12.80;58.10
2439;DHT22;14509;47.992;7.848;2024-02-15T05:02:38;12.80;57.90
2439;DHT22;14509;47.992;7.848;2024-02-15T05:04:41;12.80;57.70
2439;DHT22;14509;47.992;7.848;2024-02-15T05:06:43;12.70;57.70
2439;DHT22;14509;47.992;7.848;2024-02-15T05:08:47;12.70;57.80
2439;DHT22;14509;47.992;7.848;2024-02-15T05:10:48;12.70;57.80
2439;DHT22;14509;47.992;7.848;2024-02-15T05:12:57;13.60;58.40
2439;DHT22;14509;47.992;7.848;2024-02-15T05:15:01;12.80;58.00
2439;DHT22;14509;47.992;7.848;2024-02-15T05:17:02;12.60;58.30
2439;DHT22;14509;47.992;7.848;2024-02-15T05:19:04;13.10;58.70
2439;DHT22;14509;47.992;7.848;2024-02-15T05:21:07;12.70;58.30
2439;DHT22;14509;47.992;7.848;2024-02-15T05:23:10;12.70;58.20
2439;DHT22;14509;47.992;7.848;2024-02-15T05:25:14;12.80;58.20
2439;DHT22;14509;47.992;7.848;2024-02-15T05:27:16;12.80;58.10
2439;DHT22;14509;47.992;7.848;2024-02-15T05:29:18;12.80;57.80
2439;DHT22;14509;47.992;7.848;2024-02-15T05:31:21;12.80;57.70
2439;DHT22;14509;47.992;7.848;2024-02-15T05:33:25;12.80;57.80
2439;DHT22;14509;47.992;7.848;2024-02-15T05:35:27;12.80;57.60
2439;DHT22;14509;47.992;7.848;2024-02-15T05:37:29;12.80;57.60
2439;DHT22;14509;47.992;7.848;2024-02-15T05:39:30;12.80;57.50
2439;DHT22;14509;47.992;7.848;2024-02-15T05:41:34;12.90;57.50
2439;DHT22;14509;47.992;7.848;2024-02-15T05:43:35;12.90;57.40
2439;DHT22;14509;47.992;7.848;2024-02-15T05:45:39;12.90;57.90
2439;DHT22;14509;47.992;7.848;2024-02-15T05:47:40;12.90;57.30
2439;DHT22;14509;47.992;7.848;2024-02-15T05:49:41;12.90;57.10
2439;DHT22;14509;47.992;7.848;2024-02-15T05:51:43;12.90;57.10
2439;DHT22;14509;47.992;7.848;2024-02-15T05:53:45;13.00;57.20
2439;DHT22;14509;47.992;7.848;2024-02-15T05:55:47;12.80;57.00
2439;DHT22;14509;47.992;7.848;2024-02-15T05:57:51;12.80;57.20
2439;DHT22;14509;47.992;7.848;2024-02-15T05:59:53;12.80;57.30
2439;DHT22;14509;47.992;7.848;2024-02-15T06:01:55;12.80;57.40
2439;DHT22;14509;47.992;7.848;2024-02-15T06:03:57;12.80;57.50
2439;DHT22;14509;47.992;7.848;2024-02-15T06:05:58;12.80;57.50
2439;DHT22;14509;47.992;7.848;2024-02-15T06:08:00;12.80;57.60
2439;DHT22;14509;47.992;7.848;2024-02-15T06:10:01;12.80;57.60
2439;DHT22;14509;47.992;7.848;2024-02-15T06:12:05;12.80;57.70
2439;DHT22;14509;47.992;7.848;2024-02-15T06:14:08;12.80;57.60
2439;DHT22;14509;47.992;7.848;2024-02-15T06:16:10;12.80;57.40
2439;DHT22;14509;47.992;7.848;2024-02-15T06:18:12;12.90;57.20
2439;DHT22;14509;47.992;7.848;2024-02-15T06:20:15;12.80;57.10
2439;DHT22;14509;47.992;7.848;2024-02-15T06:22:18;12.90;57.10
2439;DHT22;14509;47.992;7.848;2024-02-15T06:24:20;12.90;57.10
2439;DHT22;14509;47.992;7.848;2024-02-15T06:26:22;12.80;57.10
2439;DHT22;14509;47.992;7.848;2024-02-15T06:28:24;13.80;58.10
2439;DHT22;14509;47.992;7.848;2024-02-15T06:30:41;12.90;57.40
2439;DHT22;14509;47.992;7.848;2024-02-15T06:33:00;12.80;57.40
2439;DHT22;14509;47.992;7.848;2024-02-15T06:35:20;12.90;57.40
2439;DHT22;14509;47.992;7.848;2024-02-15T06:37:39;13.00;57.40
2439;DHT22;14509;47.992;7.848;2024-02-15T06:39:59;13.10;57.30
2439;DHT22;14509;47.992;7.848;2024-02-15T06:42:01;13.10;57.20
2439;DHT22;14509;47.992;7.848;2024-02-15T06:44:02;13.20;57.00
2439;DHT22;14509;47.992;7.848;2024-02-15T06:46:07;13.20;56.70
2439;DHT22;14509;47.992;7.848;2024-02-15T06:48:11;13.20;56.60
2439;DHT22;14509;47.992;7.848;2024-02-15T06:50:13;13.20;56.60
2439;DHT22;14509;47.992;7.848;2024-02-15T06:52:15;13.30;56.70
2439;DHT22;14509;47.992;7.848;2024-02-15T06:54:17;13.30;56.50
2439;DHT22;14509;47.992;7.848;2024-02-15T06:56:19;13.80;56.60
2439;DHT22;14509;47.992;7.848;2024-02-15T06:58:21;13.50;56.10
2439;DHT22;14509;47.992;7.848;2024-02-15T07:00:23;13.60;56.10
2439;DHT22;14509;47.992;7.848;2024-02-15T07:02:26;13.70;56.00
2439;DHT22;14509;47.992;7.848;2024-02-15T07:04:29;13.80;55.70
2439;DHT22;14509;47.992;7.848;2024-02-15T07:06:32;13.90;55.50
2439;DHT22;14509;47.992;7.848;2024-02-15T07:08:35;13.90;55.30
2439;DHT22;14509;47.992;7.848;2024-02-15T07:10:37;13.90;55.30
2439;DHT22;14509;47.992;7.848;2024-02-15T07:12:40;13.90;55.40
2439;DHT22;14509;47.992;7.848;2024-02-15T07:14:45;13.90;55.30
2439;DHT22;14509;47.992;7.848;2024-02-15T07:16:48;14.00;55.60
2439;DHT22;14509;47.992;7.848;2024-02-15T07:18:51;14.10;55.40
2439;DHT22;14509;47.992;7.848;2024-02-15T07:20:53;14.20;55.10
2439;DHT22;14509;47.992;7.848;2024-02-15T07:22:57;14.20;54.90
2439;DHT22;14509;47.992;7.848;2024-02-15T07:24:59;14.30;54.60
2439;DHT22;14509;47.992;7.848;2024-02-15T07:27:01;14.30;54.50
2439;DHT22;14509;47.992;7.848;2024-02-15T07:29:03;14.40;54.40
2439;DHT22;14509;47.992;7.848;2024-02-15T07:31:06;14.50;54.40
2439;DHT22;14509;47.992;7.848;2024-02-15T07:33:08;14.50;54.20
2439;DHT22;14509;47.992;7.848;2024-02-15T07:35:11;14.60;54.00
2439;DHT22;14509;47.992;7.848;2024-02-15T07:37:14;14.70;53.90
2439;DHT22;14509;47.992;7.848;2024-02-15T07:39:16;14.70;53.80
2439;DHT22;14509;47.992;7.848;2024-02-15T07:41:23;14.80;53.60
2439;DHT22;14509;47.992;7.848;2024-02-15T07:43:25;14.80;53.40
2439;DHT22;14509;47.992;7.848;2024-02-15T07:45:27;14.90;53.40
2439;DHT22;14509;47.992;7.848;2024-02-15T07:47:29;15.00;53.10
2439;DHT22;14509;47.992;7.848;2024-02-15T07:49:31;15.00;53.00
2439;DHT22;14509;47.992;7.848;2024-02-15T07:51:35;15.00;52.90
2439;DHT22;14509;47.992;7.848;2024-02-15T07:53:38;15.10;53.00
2439;DHT22;14509;47.992;7.848;2024-02-15T07:55:40;15.20;52.90
2439;DHT22;14509;47.992;7.848;2024-02-15T07:57:43;15.30;52.70
2439;DHT22;14509;47.992;7.848;2024-02-15T07:59:44;15.40;52.50
2439;DHT22;14509;47.992;7.848;2024-02-15T08:01:48;15.50;52.40
2439;DHT22;14509;47.992;7.848;2024-02-15T08:03:50;15.50;52.20
2439;DHT22;14509;47.992;7.848;2024-02-15T08:05:53;15.60;52.10
2439;DHT22;14509;47.992;7.848;2024-02-15T08:07:56;15.70;52.00
2439;DHT22;14509;47.992;7.848;2024-02-15T08:09:58;15.80;51.70
2439;DHT22;14509;47.992;7.848;2024-02-15T08:12:00;15.90;51.40
2439;DHT22;14509;47.992;7.848;2024-02-15T08:14:03;16.10;51.30
2439;DHT22;14509;47.992;7.848;2024-02-15T08:16:08;16.20;50.40
2439;DHT22;14509;47.992;7.848;2024-02-15T08:18:09;16.30;49.90
2439;DHT22;14509;47.992;7.848;2024-02-15T08:20:14;16.40;50.00
2439;DHT22;14509;47.992;7.848;2024-02-15T08:22:18;16.60;49.80
2439;DHT22;14509;47.992;7.848;2024-02-15T08:24:25;16.80;49.20
2439;DHT22;14509;47.992;7.848;2024-02-15T08:26:26;17.00;49.40
2439;DHT22;14509;47.992;7.848;2024-02-15T08:28:32;17.20;49.30
2439;DHT22;14509;47.992;7.848;2024-02-15T08:30:34;17.20;48.90
2439;DHT22;14509;47.992;7.848;2024-02-15T08:32:35;17.40;48.60
2439;DHT22;14509;47.992;7.848;2024-02-15T08:34:37;17.50;48.40
2439;DHT22;14509;47.992;7.848;2024-02-15T08:36:40;17.70;48.20
2439;DHT22;14509;47.992;7.848;2024-02-15T08:38:41;17.70;47.90
2439;DHT22;14509;47.992;7.848;2024-02-15T08:40:46;17.90;47.70
2439;DHT22;14509;47.992;7.848;2024-02-15T08:42:48;18.00;47.60
2439;DHT22;14509;47.992;7.848;2024-02-15T08:44:50;18.10;47.60
2439;DHT22;14509;47.992;7.848;2024-02-15T08:46:50;18.20;47.30
2439;DHT22;14509;47.992;7.848;2024-02-15T08:48:52;18.30;47.30
2439;DHT22;14509;47.992;7.848;2024-02-15T08:50:54;18.30;47.00
2439;DHT22;14509;47.992;7.848;2024-02-15T08:52:56;18.40;46.70
2439;DHT22;14509;47.992;7.848;2024-02-15T08:54:58;18.40;46.50
2439;DHT22;14509;47.992;7.848;2024-02-15T08:57:03;18.40;46.20
2439;DHT22;14509;47.992;7.848;2024-02-15T08:59:04;18.50;46.20
2439;DHT22;14509;47.992;7.848;2024-02-15T09:01:06;18.50;46.40
2439;DHT22;14509;47.992;7.848;2024-02-15T09:03:09;18.50;46.30
2439;DHT22;14509;47.992;7.848;2024-02-15T09:05:11;18.60;46.30
2439;DHT22;14509;47.992;7.848;2024-02-15T09:07:14;18.60;46.10
2439;DHT22;14509;47.992;7.848;2024-02-15T09:09:16;18.60;46.00
2439;DHT22;14509;47.992;7.848;2024-02-15T09:11:18;18.60;45.90
2439;DHT22;14509;47.992;7.848;2024-02-15T09:13:21;18.70;45.80
2439;DHT22;14509;47.992;7.848;2024-02-15T09:15:24;18.70;45.70
2439;DHT22;14509;47.992;7.848;2024-02-15T09:17:25;18.70;45.60
2439;DHT22;14509;47.992;7.848;2024-02-15T09:19:27;18.70;45.60
2439;DHT22;14509;47.992;7.848;2024-02-15T09:21:29;18.70;45.60
2439;DHT22;14509;47.992;7.848;2024-02-15T09:23:31;18.70;45.40
2439;DHT22;14509;47.992;7.848;2024-02-15T09:25:32;18.90;45.50
2439;DHT22;14509;47.992;7.848;2024-02-15T09:27:34;18.90;45.20
2439;DHT22;14509;47.992;7.848;2024-02-15T09:29:38;18.90;45.10
2439;DHT22;14509;47.992;7.848;2024-02-15T09:31:40;19.00;45.20
2439;DHT22;14509;47.992;7.848;2024-02-15T09:33:43;19.10;45.10
2439;DHT22;14509;47.992;7.848;2024-02-15T09:35:46;19.30;45.20
2439;DHT22;14509;47.992;7.848;2024-02-15T09:37:49;19.30;44.90
2439;DHT22;14509;47.992;7.848;2024-02-15T09:39:51;19.30;44.70
2439;DHT22;14509;47.992;7.848;2024-02-15T09:41:53;19.40;44.80
2439;DHT22;14509;47.992;7.848;2024-02-15T09:43:59;19.50;44.80
2439;DHT22;14509;47.992;7.848;2024-02-15T09:46:03;19.60;44.60
2439;DHT22;14509;47.992;7.848;2024-02-15T09:48:06;19.70;44.40
2439;DHT22;14509;47.992;7.848;2024-02-15T09:50:09;19.70;44.50
2439;DHT22;14509;47.992;7.848;2024-02-15T09:52:11;19.80;44.50
2439;DHT22;14509;47.992;7.848;2024-02-15T09:54:16;20.00;44.50
2439;DHT22;14509;47.992;7.848;2024-02-15T09:56:23;20.10;44.30
2439;DHT22;14509;47.992;7.848;2024-02-15T09:58:26;20.20;44.10
2439;DHT22;14509;47.992;7.848;2024-02-15T10:00:28;20.40;44.00
2439;DHT22;14509;47.992;7.848;2024-02-15T10:02:31;20.40;43.80
2439;DHT22;14509;47.992;7.848;2024-02-15T10:04:33;20.60;43.60
2439;DHT22;14509;47.992;7.848;2024-02-15T10:06:35;20.70;43.30
2439;DHT22;14509;47.992;7.848;2024-02-15T10:08:38;20.80;43.20
2439;DHT22;14509;47.992;7.848;2024-02-15T10:10:39;20.70;43.10
2439;DHT22;14509;47.992;7.848;2024-02-15T10:12:42;20.90;43.40
2439;DHT22;14509;47.992;7.848;2024-02-15T10:14:48;20.80;43.50
2439;DHT22;14509;47.992;7.848;2024-02-15T10:16:51;20.70;43.70
2439;DHT22;14509;47.992;7.848;2024-02-15T10:19:08;20.70;43.40
2439;DHT22;14509;47.992;7.848;2024-02-15T10:21:24;20.60;43.20
2439;DHT22;14509;47.992;7.848;2024-02-15T10:23:25;20.50;43.40
2439;DHT22;14509;47.992;7.848;2024-02-15T10:25:27;20.40;43.60
2439;DHT22;14509;47.992;7.848;2024-02-15T10:27:29;20.20;43.70
2439;DHT22;14509;47.992;7.848;2024-02-15T10:29:38;20.10;43.90
2439;DHT22;14509;47.992;7.848;2024-02-15T10:31:52;20.00;44.10
2439;DHT22;14509;47.992;7.848;2024-02-15T10:34:02;19.80;44.30
2439;DHT22;14509;47.992;7.848;2024-02-15T10:36:08;19.70;44.70
2439;DHT22;14509;47.992;7.848;2024-02-15T10:38:12;19.60;45.10
2439;DHT22;14509;47.992;7.848;2024-02-15T10:40:16;19.60;45.10
2439;DHT22;14509;47.992;7.848;2024-02-15T10:42:18;19.60;45.20
2439;DHT22;14509;47.992;7.848;2024-02-15T10:44:21;19.70;45.10
2439;DHT22;14509;47.992;7.848;2024-02-15T10:46:23;19.70;45.10
2439;DHT22;14509;47.992;7.848;2024-02-15T10:48:24;19.80;45.10
2439;DHT22;14509;47.992;7.848;2024-02-15T10:50:27;19.80;45.10
2439;DHT22;14509;47.992;7.848;2024-02-15T10:52:31;19.80;44.90
2439;DHT22;14509;47.992;7.848;2024-02-15T10:54:46;19.90;44.80
2439;DHT22;14509;47.992;7.848;2024-02-15T10:56:52;19.90;44.90
2439;DHT22;14509;47.992;7.848;2024-02-15T10:59:03;19.90;45.00
2439;DHT22;14509;47.992;7.848;2024-02-15T11:01:13;20.00;45.00
2439;DHT22;14509;47.992;7.848;2024-02-15T11:03:23;19.90;44.70
2439;DHT22;14509;47.992;7.848;2024-02-15T11:05:29;20.00;44.70
2439;DHT22;14509;47.992;7.848;2024-02-15T11:07:33;19.90;44.80
2439;DHT22;14509;47.992;7.848;2024-02-15T11:09:36;19.90;44.80
2439;DHT22;14509;47.992;7.848;2024-02-15T11:11:38;19.90;44.90
2439;DHT22;14509;47.992;7.848;2024-02-15T11:13:41;19.90;45.10
2439;DHT22;14509;47.992;7.848;2024-02-15T11:15:45;19.90;45.00
2439;DHT22;14509;47.992;7.848;2024-02-15T11:17:54;19.90;45.10
2439;DHT22;14509;47.992;7.848;2024-02-15T11:19:56;20.00;45.10
2439;DHT22;14509;47.992;7.848;2024-02-15T11:22:00;20.10;45.10
2439;DHT22;14509;47.992;7.848;2024-02-15T11:24:24;20.10;44.90
2439;DHT22;14509;47.992;7.848;2024-02-15T11:26:44;20.20;44.90
2439;DHT22;14509;47.992;7.848;2024-02-15T11:28:48;20.30;44.60
2439;DHT22;14509;47.992;7.848;2024-02-15T11:30:51;20.30;44.40
2439;DHT22;14509;47.992;7.848;2024-02-15T11:32:57;20.40;44.10
2439;DHT22;14509;47.992;7.848;2024-02-15T11:35:03;20.50;44.00
2439;DHT22;14509;47.992;7.848;2024-02-15T11:40:00;20.70;43.80
2439;DHT22;14509;47.992;7.848;2024-02-15T11:42:24;20.80;43.40
2439;DHT22;14509;47.992;7.848;2024-02-15T11:44:29;20.90;43.60
2439;DHT22;14509;47.992;7.848;2024-02-15T11:46:32;20.90;43.20
2439;DHT22;14509;47.992;7.848;2024-02-15T11:48:36;21.00;43.30
2439;DHT22;14509;47.992;7.848;2024-02-15T11:50:40;21.00;43.30
2439;DHT22;14509;47.992;7.848;2024-02-15T11:52:42;21.20;43.30
2439;DHT22;14509;47.992;7.848;2024-02-15T11:54:43;21.80;43.50
2439;DHT22;14509;47.992;7.848;2024-02-15T11:56:56;21.20;43.00
2439;DHT22;14509;47.992;7.848;2024-02-15T11:59:10;21.30;43.00
2439;DHT22;14509;47.992;7.848;2024-02-15T12:01:19;21.30;42.90
2439;DHT22;14509;47.992;7.848;2024-02-15T12:03:38;21.40;42.80
2439;DHT22;14509;47.992;7.848;2024-02-15T12:05:58;21.40;42.90
2439;DHT22;14509;47.992;7.848;2024-02-15T12:08:18;21.50;42.80
2439;DHT22;14509;47.992;7.848;2024-02-15T12:10:38;21.60;42.60
2439;DHT22;14509;47.992;7.848;2024-02-15T12:12:59;21.60;42.60
2439;DHT22;14509;47.992;7.848;2024-02-15T12:15:19;21.80;42.70
2439;DHT22;14509;47.992;7.848;2024-02-15T12:17:38;21.90;42.30
2439;DHT22;14509;47.992;7.848;2024-02-15T12:20:00;22.10;41.80
2439;DHT22;14509;47.992;7.848;2024-02-15T12:22:07;22.30;41.70
2439;DHT22;14509;47.992;7.848;2024-02-15T12:24:09;22.50;41.60
2439;DHT22;14509;47.992;7.848;2024-02-15T12:26:12;22.60;41.20
2439;DHT22;14509;47.992;7.848;2024-02-15T12:28:16;22.70;40.90
2439;DHT22;14509;47.992;7.848;2024-02-15T12:30:19;22.70;40.70
2439;DHT22;14509;47.992;7.848;2024-02-15T12:32:25;22.80;40.80
2439;DHT22;14509;47.992;7.848;2024-02-15T12:34:27;22.70;40.70
2439;DHT22;14509;47.992;7.848;2024-02-15T12:36:29;22.60;40.80
2439;DHT22;14509;47.992;7.848;2024-02-15T12:38:33;22.50;40.90
2439;DHT22;14509;47.992;7.848;2024-02-15T12:40:39;22.40;41.10
2439;DHT22;14509;47.992;7.848;2024-02-15T12:42:42;22.40;41.30
2439;DHT22;14509;47.992;7.848;2024-02-15T12:44:47;22.30;41.40
2439;DHT22;14509;47.992;7.848;2024-02-15T12:46:54;22.30;41.50
2439;DHT22;14509;47.992;7.848;2024-02-15T12:49:10;22.40;41.60
2439;DHT22;14509;47.992;7.848;2024-02-15T12:51:16;22.40;41.50
2439;DHT22;14509;47.992;7.848;2024-02-15T12:53:21;22.50;41.40
2439;DHT22;14509;47.992;7.848;2024-02-15T12:55:25;22.50;41.20
2439;DHT22;14509;47.992;7.848;2024-02-15T12:57:27;22.60;41.10
2439;DHT22;14509;47.992;7.848;2024-02-15T12:59:28;22.70;40.70
2439;DHT22;14509;47.992;7.848;2024-02-15T13:01:31;23.20;41.00
2439;DHT22;14509;47.992;7.848;2024-02-15T13:03:34;22.80;40.50
2439;DHT22;14509;47.992;7.848;2024-02-15T13:05:37;22.90;40.20
2439;DHT22;14509;47.992;7.848;2024-02-15T13:07:39;22.90;40.40
2439;DHT22;14509;47.992;7.848;2024-02-15T13:09:40;23.00;40.20
2439;DHT22;14509;47.992;7.848;2024-02-15T13:11:43;23.10;40.10
2439;DHT22;14509;47.992;7.848;2024-02-15T13:13:47;23.10;40.20
2439;DHT22;14509;47.992;7.848;2024-02-15T13:15:49;23.10;40.00
2439;DHT22;14509;47.992;7.848;2024-02-15T13:17:54;23.20;39.90